Time;durP1;ratioP1;P1;durP2;ratioP2;P2;SDS_P1;SDS_P2;PMS_P1;PMS_P2;Temp;Humidity;BMP_temperature;BMP_pressure;BME280_temperature;BME280_humidity;BME280_pressure;Samples;Min_cycle;Max_cycle;Signal;HPM_P1;HPM_P2
2022/07/09 00:00:38;;;;;;;2.72;0.70;;;;;;;17.80;79.35;95141.53;4944497;29;20027;-90
2022/07/09 00:03:03;;;;;;;0.65;0.60;;;;;;;17.89;78.55;95141.63;4959841;29;20039;-90
2022/07/09 00:05:29;;;;;;;1.25;0.60;;;;;;;18.06;77.86;95140.28;4960118;29;20097;-89
2022/07/09 00:07:54;;;;;;;2.65;0.50;;;;;;;17.90;81.04;95137.13;4966565;28;20039;-90
2022/07/09 00:10:20;;;;;;;0.95;0.50;;;;;;;17.78;80.19;95135.72;4952544;28;20043;-90
2022/07/09 00:12:45;;;;;;;1.92;0.65;;;;;;;17.68;87.62;95133.28;4957205;28;20454;-90
2022/07/09 00:15:12;;;;;;;0.63;0.43;;;;;;;17.73;85.03;95127.88;4936160;28;20508;-90
2022/07/09 00:17:37;;;;;;;1.27;0.52;;;;;;;17.83;81.72;95131.41;4955849;28;20035;-90
2022/07/09 00:20:04;;;;;;;2.53;0.52;;;;;;;17.77;83.68;95128.06;4936773;29;20042;-90
2022/07/09 00:22:31;;;;;;;0.85;0.50;;;;;;;17.55;86.05;95124.25;4937394;28;20326;-91
2022/07/09 00:24:57;;;;;;;0.80;0.60;;;;;;;17.56;88.04;95125.00;4953165;28;20132;-90
2022/07/09 00:27:23;;;;;;;0.47;0.40;;;;;;;17.67;82.90;95121.09;4956578;28;20027;-90
2022/07/09 00:29:48;;;;;;;0.35;0.35;;;;;;;17.64;85.44;95119.03;4979613;28;20042;-89
2022/07/09 00:32:14;;;;;;;0.80;0.70;;;;;;;17.64;86.46;95119.03;4963087;28;20038;-90
2022/07/09 00:34:39;;;;;;;1.50;0.68;;;;;;;17.76;83.32;95115.91;4962701;28;20037;-90
2022/07/09 00:37:05;;;;;;;5.03;0.90;;;;;;;17.84;81.25;95117.88;4962472;28;20105;-91
2022/07/09 00:39:30;;;;;;;1.67;0.60;;;;;;;17.92;82.00;95119.81;4962641;28;20034;-90
2022/07/09 00:42:07;;;;;;;0.50;0.50;;;;;;;18.02;80.51;95121.53;4946737;28;20380;-91
2022/07/09 00:44:33;;;;;;;1.48;0.93;;;;;;;17.59;90.44;95119.91;4962387;28;20034;-90
2022/07/09 00:46:58;;;;;;;0.98;0.70;;;;;;;17.68;84.38;95114.72;4962726;28;20428;-90
2022/07/09 00:49:25;;;;;;;6.80;0.90;;;;;;;17.54;93.14;95122.66;4962390;28;20035;-90
2022/07/09 00:51:54;;;;;;;2.90;0.60;;;;;;;17.45;98.58;95116.47;4962323;28;20437;-90
2022/07/09 00:54:19;;;;;;;3.22;0.77;;;;;;;16.88;100.00;95120.03;4946613;28;20035;-90
2022/07/09 00:56:45;;;;;;;0.52;0.45;;;;;;;17.17;99.16;95113.75;4962210;28;20035;-90
2022/07/09 00:59:13;;;;;;;1.20;0.70;;;;;;;17.13;100.00;95116.19;4946040;28;20038;-90
2022/07/09 01:01:39;;;;;;;0.55;0.52;;;;;;;16.95;99.29;95118.56;4946824;28;20056;-90
2022/07/09 01:04:06;;;;;;;2.95;0.55;;;;;;;16.99;100.00;95110.88;4961562;28;20069;-90
2022/07/09 01:06:34;;;;;;;1.05;0.68;;;;;;;16.94;100.00;95117.00;4978133;28;20038;-89
2022/07/09 01:09:01;;;;;;;1.77;0.70;;;;;;;16.64;100.00;95119.03;4962752;28;20352;-90
2022/07/09 01:11:27;;;;;;;2.45;0.80;;;;;;;16.30;100.00;95111.31;4961713;28;20480;-90
2022/07/09 01:13:52;;;;;;;2.45;0.93;;;;;;;16.14;100.00;95108.06;4979271;28;20109;-90
2022/07/09 01:16:20;;;;;;;0.90;0.63;;;;;;;16.16;100.00;95098.81;4978078;28;20033;-89
2022/07/09 01:18:46;;;;;;;0.73;0.65;;;;;;;16.37;100.00;95101.19;4977975;28;20034;-90
2022/07/09 01:21:16;;;;;;;0.60;0.60;;;;;;;16.30;100.00;95106.03;4977994;28;20030;-90
2022/07/09 01:23:41;;;;;;;1.15;0.60;;;;;;;16.48;100.00;95104.47;4962150;28;20049;-90
2022/07/09 01:26:07;;;;;;;1.13;0.90;;;;;;;16.47;100.00;95102.91;4977666;28;20027;-90
2022/07/09 01:28:33;;;;;;;0.75;0.70;;;;;;;16.40;100.00;95095.31;4961858;28;20045;-90
2022/07/09 01:30:59;;;;;;;0.73;0.60;;;;;;;16.18;100.00;95094.00;4978057;28;20089;-90
2022/07/09 01:33:25;;;;;;;1.23;0.70;;;;;;;16.03;100.00;95094.22;4977544;28;20118;-90
2022/07/09 01:35:50;;;;;;;2.65;0.70;;;;;;;16.31;100.00;95100.47;4961705;28;20037;-90
2022/07/09 01:38:16;;;;;;;0.65;0.63;;;;;;;16.35;100.00;95090.88;4977418;28;20038;-90
2022/07/09 01:40:41;;;;;;;1.10;0.70;;;;;;;16.40;100.00;95100.63;4961513;28;20082;-90
2022/07/09 01:43:07;;;;;;;0.90;0.70;;;;;;;16.13;100.00;95090.66;4978526;28;20110;-90
2022/07/09 01:45:32;;;;;;;0.70;0.70;;;;;;;15.96;100.00;95089.28;4977280;28;20086;-90
2022/07/09 01:48:00;;;;;;;1.23;0.68;;;;;;;16.07;100.00;95080.16;4977500;28;20089;-90
2022/07/09 01:50:26;;;;;;;3.05;0.55;;;;;;;16.23;100.00;95087.88;4977153;28;20031;-90
2022/07/09 01:52:53;;;;;;;3.83;0.98;;;;;;;16.18;100.00;95085.31;4977161;28;20037;-91
2022/07/09 01:55:19;;;;;;;0.85;0.70;;;;;;;16.34;100.00;95083.22;4977010;28;20113;-90
2022/07/09 01:57:44;;;;;;;0.70;0.65;;;;;;;16.36;100.00;95081.88;4977021;28;20097;-90
2022/07/09 02:00:11;;;;;;;0.90;0.70;;;;;;;16.20;100.00;95085.81;4977131;28;20110;-91
2022/07/09 02:02:36;;;;;;;2.05;0.75;;;;;;;16.29;100.00;95088.59;4961147;28;20101;-89
2022/07/09 02:05:02;;;;;;;2.55;1.00;;;;;;;16.10;100.00;95082.22;4961639;28;20057;-89
2022/07/09 02:07:27;;;;;;;0.88;0.60;;;;;;;16.19;100.00;95085.00;4961429;28;20037;-91
2022/07/09 02:09:53;;;;;;;2.00;0.70;;;;;;;16.10;100.00;95082.22;4977267;28;20045;-90
2022/07/09 02:12:18;;;;;;;2.75;0.70;;;;;;;16.20;100.00;95080.53;4977042;28;20034;-90
2022/07/09 02:14:44;;;;;;;1.35;0.82;;;;;;;16.27;100.00;95074.88;4976776;28;20140;-90
2022/07/09 02:17:10;;;;;;;1.35;0.73;;;;;;;16.10;100.00;95074.28;4960670;28;20042;-90
2022/07/09 02:19:35;;;;;;;1.05;0.70;;;;;;;16.20;100.00;95070.72;4976557;28;20074;-90
2022/07/09 02:22:01;;;;;;;1.25;0.63;;;;;;;16.28;100.00;95071.16;4978024;28;20161;-90
2022/07/09 02:24:27;;;;;;;1.67;0.68;;;;;;;16.34;100.00;95070.00;4976854;28;20049;-90
2022/07/09 02:26:53;;;;;;;1.10;0.70;;;;;;;16.34;100.00;95070.81;4976745;28;20027;-90
2022/07/09 02:29:18;;;;;;;0.82;0.50;;;;;;;16.20;100.00;95065.44;4977851;28;20042;-90
2022/07/09 02:31:44;;;;;;;1.63;0.70;;;;;;;16.42;100.00;95065.94;4976750;28;20041;-89
2022/07/09 02:34:09;;;;;;;0.68;0.65;;;;;;;16.36;100.00;95066.00;4961021;28;20027;-90
2022/07/09 02:36:35;;;;;;;1.63;0.60;;;;;;;16.22;100.00;95063.31;4960605;28;20444;-90
2022/07/09 02:39:00;;;;;;;0.75;0.52;;;;;;;15.93;100.00;95056.28;4976645;28;20081;-90
2022/07/09 02:41:26;;;;;;;0.90;0.70;;;;;;;15.89;100.00;95065.03;4960904;28;20037;-90
2022/07/09 02:43:52;;;;;;;0.77;0.63;;;;;;;15.89;100.00;95060.56;4961002;28;20101;-90
2022/07/09 02:46:17;;;;;;;0.90;0.70;;;;;;;15.97;100.00;95059.94;4961080;28;20030;-90
2022/07/09 02:48:43;;;;;;;1.25;0.70;;;;;;;16.16;100.00;95053.88;4960790;28;20026;-90
2022/07/09 02:51:08;;;;;;;2.33;0.70;;;;;;;16.05;100.00;95052.44;4978952;28;20372;-90
2022/07/09 02:53:34;;;;;;;0.57;0.57;;;;;;;15.92;100.00;95054.72;4964726;28;20333;-90
2022/07/09 02:55:59;;;;;;;1.83;0.60;;;;;;;15.75;100.00;95059.63;4964676;28;20045;-90
2022/07/09 02:58:25;;;;;;;2.03;0.80;;;;;;;15.68;100.00;95055.50;4964729;28;20034;-90
2022/07/09 03:00:50;;;;;;;1.75;0.73;;;;;;;15.49;100.00;95057.28;4980690;28;20034;-90
2022/07/09 03:03:16;;;;;;;0.77;0.60;;;;;;;15.52;100.00;95052.25;4980369;28;20060;-90
2022/07/09 03:05:42;;;;;;;2.67;0.80;;;;;;;15.56;100.00;95055.09;4980360;28;20030;-90
2022/07/09 03:08:08;;;;;;;1.55;0.70;;;;;;;15.42;100.00;95047.06;4980388;28;20031;-90
2022/07/09 03:10:34;;;;;;;1.60;0.70;;;;;;;15.44;100.00;95047.59;4980124;28;20086;-90
2022/07/09 03:13:00;;;;;;;1.10;0.70;;;;;;;15.62;100.00;95046.03;4981212;28;20026;-90
2022/07/09 03:15:25;;;;;;;1.30;0.55;;;;;;;15.60;100.00;95044.78;4980177;28;20347;-90
2022/07/09 03:17:51;;;;;;;1.05;0.70;;;;;;;15.35;100.00;95044.78;4981181;28;20061;-90
2022/07/09 03:20:16;;;;;;;2.65;0.70;;;;;;;15.24;100.00;95044.09;4980286;28;20023;-90
2022/07/09 03:22:42;;;;;;;1.45;0.70;;;;;;;15.09;100.00;95045.03;4981076;28;20049;-90
2022/07/09 03:25:08;;;;;;;3.05;0.80;;;;;;;15.27;100.00;95050.66;4979986;28;20440;-90
2022/07/09 03:27:33;;;;;;;1.55;0.80;;;;;;;15.45;100.00;95054.44;4981380;28;20030;-89
2022/07/09 03:29:59;;;;;;;0.88;0.60;;;;;;;15.40;100.00;95060.56;4981274;28;20084;-90
2022/07/09 03:32:25;;;;;;;3.78;0.77;;;;;;;15.44;100.00;95060.78;4981046;28;20035;-86
2022/07/09 03:34:52;;;;;;;1.95;0.52;;;;;;;15.36;100.00;95064.84;4981086;28;20428;-86
2022/07/09 03:37:18;;;;;;;3.40;0.85;;;;;;;15.60;100.00;95069.31;4979512;28;20460;-86
2022/07/09 03:39:44;;;;;;;1.17;0.60;;;;;;;15.64;100.00;95062.44;4979670;28;20077;-86
2022/07/09 03:42:10;;;;;;;0.63;0.60;;;;;;;15.36;100.00;95067.47;4963571;28;20364;-86
2022/07/09 03:44:36;;;;;;;1.67;0.70;;;;;;;15.35;100.00;95060.63;4979762;28;20035;-86
2022/07/09 03:47:01;;;;;;;1.85;0.68;;;;;;;15.43;100.00;95066.34;4979577;28;20102;-87
2022/07/09 03:49:27;;;;;;;0.93;0.57;;;;;;;15.46;100.00;95063.13;4979626;28;20038;-86
2022/07/09 03:51:52;;;;;;;0.77;0.50;;;;;;;15.34;100.00;95061.66;4979442;28;20031;-86
2022/07/09 03:54:18;;;;;;;1.27;0.60;;;;;;;15.39;100.00;95063.47;4979422;28;20437;-87
2022/07/09 03:56:44;;;;;;;3.55;0.68;;;;;;;15.54;100.00;95070.44;4960584;28;20030;-86
2022/07/09 03:59:09;;;;;;;0.80;0.60;;;;;;;15.58;100.00;95076.75;4974695;28;20037;-87
2022/07/09 04:01:35;;;;;;;0.85;0.60;;;;;;;15.69;100.00;95065.00;4980972;28;20075;-87
2022/07/09 04:04:00;;;;;;;1.20;0.47;;;;;;;15.92;100.00;95069.78;4962061;28;20030;-87
2022/07/09 04:06:26;;;;;;;1.77;0.70;;;;;;;15.79;100.00;95071.25;4980934;28;20035;-87
2022/07/09 04:08:51;;;;;;;0.73;0.45;;;;;;;15.65;100.00;95071.91;4980919;28;20044;-87
2022/07/09 04:11:16;;;;;;;0.98;0.57;;;;;;;15.69;100.00;95074.75;4947499;28;20054;-87
2022/07/09 04:13:42;;;;;;;0.55;0.50;;;;;;;15.91;100.00;95071.63;4963529;28;20034;-87
2022/07/09 04:16:08;;;;;;;0.40;0.40;;;;;;;15.71;100.00;95079.78;4980687;28;20034;-87
2022/07/09 04:18:34;;;;;;;1.52;0.68;;;;;;;15.53;100.00;95080.22;4980670;28;20039;-87
2022/07/09 04:21:00;;;;;;;1.35;0.50;;;;;;;15.60;100.00;95085.16;4947409;28;20027;-86
2022/07/09 04:23:26;;;;;;;0.82;0.60;;;;;;;15.50;100.00;95091.34;4963124;28;20065;-87
2022/07/09 04:25:52;;;;;;;0.65;0.60;;;;;;;15.46;100.00;95085.06;4980936;28;20031;-86
2022/07/09 04:28:18;;;;;;;0.70;0.50;;;;;;;15.40;100.00;95094.09;4962855;28;20038;-87
2022/07/09 04:30:44;;;;;;;0.77;0.68;;;;;;;15.47;100.00;95091.13;4980400;28;20129;-87
2022/07/09 04:33:10;;;;;;;0.70;0.70;;;;;;;15.69;100.00;95093.25;4947316;28;20121;-87
2022/07/09 04:35:35;;;;;;;0.70;0.70;;;;;;;15.75;100.00;95093.97;4980065;28;20062;-86
2022/07/09 04:38:01;;;;;;;2.03;0.65;;;;;;;15.66;100.00;95099.09;4949932;29;20066;-87
2022/07/09 04:40:27;;;;;;;1.27;0.90;;;;;;;15.63;100.00;95095.16;4959640;29;20356;-87
2022/07/09 04:42:52;;;;;;;1.50;0.88;;;;;;;15.48;100.00;95096.13;4943679;29;20073;-87
2022/07/09 04:45:17;;;;;;;3.80;0.50;;;;;;;15.54;100.00;95096.88;4960801;29;20031;-87
2022/07/09 04:47:43;;;;;;;0.93;0.70;;;;;;;15.80;100.00;95102.66;4959380;28;20046;-87
2022/07/09 04:50:09;;;;;;;0.70;0.70;;;;;;;15.97;100.00;95101.41;4960786;29;20041;-87
2022/07/09 04:52:34;;;;;;;2.50;0.70;;;;;;;15.77;100.00;95105.06;4959553;29;20340;-87
2022/07/09 04:55:00;;;;;;;0.63;0.55;;;;;;;15.77;100.00;95097.94;4958944;29;20031;-86
2022/07/09 04:57:25;;;;;;;1.20;0.70;;;;;;;15.79;100.00;95108.22;4959026;29;20401;-87
2022/07/09 04:59:51;;;;;;;1.33;0.65;;;;;;;16.09;100.00;95101.78;4943449;29;20089;-87
2022/07/09 05:02:16;;;;;;;1.85;0.63;;;;;;;16.30;100.00;95096.25;4960352;29;20031;-87
2022/07/09 05:04:42;;;;;;;0.50;0.40;;;;;;;16.29;100.00;95102.63;4943314;29;20442;-87
2022/07/09 05:07:07;;;;;;;0.80;0.60;;;;;;;16.18;100.00;95101.19;4960470;29;20039;-87
2022/07/09 05:09:32;;;;;;;0.73;0.63;;;;;;;16.30;100.00;95096.25;4959041;29;20035;-87
2022/07/09 05:11:58;;;;;;;1.60;0.77;;;;;;;16.74;100.00;95093.53;4959264;29;20039;-87
2022/07/09 05:14:23;;;;;;;1.15;0.80;;;;;;;16.87;100.00;95091.97;4959890;28;20039;-87
2022/07/09 05:16:49;;;;;;;1.17;0.60;;;;;;;16.99;100.00;95094.16;4960028;29;20437;-87
2022/07/09 05:19:14;;;;;;;3.75;0.82;;;;;;;17.10;100.00;95082.38;4959136;29;20050;-87
2022/07/09 05:21:40;;;;;;;3.42;0.60;;;;;;;16.78;100.00;95084.69;4958751;29;20035;-87
2022/07/09 05:24:07;;;;;;;0.95;0.60;;;;;;;16.79;100.00;95080.19;4958989;29;20035;-87
2022/07/09 05:26:35;;;;;;;0.88;0.60;;;;;;;17.12;100.00;95082.84;4958935;29;20090;-87
2022/07/09 05:29:02;;;;;;;1.83;0.80;;;;;;;17.34;100.00;95084.84;4942530;29;20094;-87
2022/07/09 05:31:38;;;;;;;1.67;0.75;;;;;;;17.11;100.00;95089.22;4958935;29;20129;-87
2022/07/09 05:34:04;;;;;;;1.25;0.65;;;;;;;17.05;100.00;95095.69;4958859;29;20047;-87
2022/07/09 05:36:30;;;;;;;1.05;0.70;;;;;;;17.42;100.00;95085.28;4958148;29;20086;-87
2022/07/09 05:38:59;;;;;;;1.45;0.77;;;;;;;17.69;100.00;95084.50;4959928;29;20441;-87
2022/07/09 05:41:25;;;;;;;0.70;0.55;;;;;;;17.93;100.00;95084.31;4942584;29;20034;-87
2022/07/09 05:43:51;;;;;;;0.70;0.52;;;;;;;18.11;100.00;95084.50;4959246;29;20094;-88
2022/07/09 05:46:17;;;;;;;0.60;0.50;;;;;;;18.24;100.00;95082.88;4959549;29;20428;-88
2022/07/09 05:48:42;;;;;;;0.82;0.55;;;;;;;18.28;100.00;95089.16;4958362;29;20165;-88
2022/07/09 05:51:07;;;;;;;2.33;0.80;;;;;;;18.44;100.00;95088.84;4959491;28;20031;-87
2022/07/09 05:53:33;;;;;;;1.17;0.40;;;;;;;18.58;100.00;95086.13;4970371;28;20043;-87
2022/07/09 05:55:59;;;;;;;0.63;0.60;;;;;;;18.75;100.00;95086.25;4971710;28;20578;-87
2022/07/09 05:58:24;;;;;;;2.90;0.55;;;;;;;18.83;100.00;95083.97;4954987;29;20034;-86
2022/07/09 06:00:49;;;;;;;2.67;0.75;;;;;;;18.99;100.00;95093.16;4968733;28;20121;-88
2022/07/09 06:03:15;;;;;;;1.77;0.80;;;;;;;19.13;100.00;95093.09;4970577;28;20034;-88
2022/07/09 06:05:40;;;;;;;2.97;0.82;;;;;;;19.25;100.00;95095.19;4978069;28;20038;-87
2022/07/09 06:08:06;;;;;;;1.10;0.60;;;;;;;19.33;100.00;95096.34;4978479;28;20034;-87
2022/07/09 06:10:31;;;;;;;1.17;0.63;;;;;;;19.44;98.52;95088.88;4960881;28;20041;-87
2022/07/09 06:12:56;;;;;;;0.77;0.50;;;;;;;19.18;100.00;95085.00;4960832;28;20344;-87
2022/07/09 06:15:22;;;;;;;2.63;0.70;;;;;;;19.30;100.00;95087.09;4960859;28;20034;-87
2022/07/09 06:17:50;;;;;;;0.90;0.60;;;;;;;19.48;100.00;95090.63;4961039;28;20037;-88
2022/07/09 06:20:16;;;;;;;1.00;0.50;;;;;;;19.78;100.00;95082.91;4978271;28;20031;-87
2022/07/09 06:22:41;;;;;;;0.70;0.60;;;;;;;19.60;90.50;95089.25;4961194;28;20348;-88
2022/07/09 06:25:07;;;;;;;0.73;0.60;;;;;;;19.69;100.00;95083.97;4960116;28;20030;-88
2022/07/09 06:27:32;;;;;;;2.95;0.65;;;;;;;20.04;99.23;95074.25;4977603;28;20340;-88
2022/07/09 06:29:58;;;;;;;5.35;1.02;;;;;;;20.00;100.00;95077.81;4960625;28;20031;-88
2022/07/09 06:32:23;;;;;;;0.93;0.60;;;;;;;20.26;100.00;95077.84;4960285;28;20030;-88
2022/07/09 06:34:49;;;;;;;0.55;0.52;;;;;;;20.27;100.00;95084.75;4960748;28;20351;-88
2022/07/09 06:37:14;;;;;;;1.00;0.60;;;;;;;20.55;100.00;95083.69;4960404;28;20041;-88
2022/07/09 06:39:45;;;;;;;4.53;0.60;;;;;;;20.69;99.23;95084.31;4960802;28;20038;-88
2022/07/09 06:42:16;;;;;;;2.33;0.63;;;;;;;20.08;100.00;95074.38;4961478;28;20424;-88
2022/07/09 06:44:42;;;;;;;1.15;0.77;;;;;;;20.28;100.00;95077.56;4957007;28;20031;-88
2022/07/09 06:47:08;;;;;;;1.55;0.77;;;;;;;20.25;100.00;95080.84;4946016;28;20058;-87
2022/07/09 06:49:33;;;;;;;0.57;0.50;;;;;;;20.59;100.00;95077.41;4960590;28;20042;-88
2022/07/09 06:52:03;;;;;;;3.45;0.55;;;;;;;20.81;94.92;95082.91;4944258;28;20352;-87
2022/07/09 06:54:29;;;;;;;0.90;0.50;;;;;;;20.61;96.38;95085.88;4944355;28;20193;-88
2022/07/09 06:56:56;;;;;;;3.60;0.60;;;;;;;20.98;83.73;95082.09;4960660;28;20424;-88
2022/07/09 06:59:24;;;;;;;1.90;0.70;;;;;;;21.11;85.17;95086.47;4960481;28;20023;-87
2022/07/09 07:01:50;;;;;;;0.70;0.60;;;;;;;20.91;91.90;95079.91;4960252;28;20038;-90
2022/07/09 07:04:15;;;;;;;2.50;0.60;;;;;;;20.73;81.23;95079.09;4944067;28;20035;-88
2022/07/09 07:06:41;;;;;;;1.70;0.60;;;;;;;21.17;85.70;95082.53;4944349;28;20037;-87
2022/07/09 07:09:07;;;;;;;1.52;0.60;;;;;;;21.21;100.00;95076.56;4944223;28;20042;-88
2022/07/09 07:11:33;;;;;;;3.95;0.65;;;;;;;21.63;96.65;95078.59;4944411;28;20062;-88
2022/07/09 07:13:58;;;;;;;4.85;0.60;;;;;;;21.31;100.00;95077.00;4960267;28;20042;-89
2022/07/09 07:16:24;;;;;;;0.98;0.63;;;;;;;21.66;98.17;95080.66;4960035;28;20042;-87
2022/07/09 07:18:49;;;;;;;1.23;0.52;;;;;;;21.78;83.85;95082.66;4944336;28;20425;-88
2022/07/09 07:21:14;;;;;;;2.95;0.65;;;;;;;21.99;85.34;95075.47;4960343;28;20049;-88
2022/07/09 07:23:40;;;;;;;0.85;0.57;;;;;;;22.15;80.42;95081.03;4944147;28;20133;-88
2022/07/09 07:26:05;;;;;;;0.65;0.60;;;;;;;22.10;89.78;95083.09;4944034;28;20033;-89
2022/07/09 07:28:31;;;;;;;0.80;0.50;;;;;;;22.20;76.13;95080.06;4960033;28;20037;-90
2022/07/09 07:30:56;;;;;;;1.33;0.68;;;;;;;21.80;71.12;95088.44;4977172;28;20053;-88
2022/07/09 07:33:22;;;;;;;1.05;0.65;;;;;;;21.58;70.67;95083.03;4960234;28;20107;-88
2022/07/09 07:35:47;;;;;;;3.53;0.70;;;;;;;22.07;77.19;95087.19;4959528;28;20089;-88
2022/07/09 07:38:13;;;;;;;0.90;0.65;;;;;;;22.38;76.58;95087.94;4979915;28;20041;-88
2022/07/09 07:40:39;;;;;;;1.40;0.57;;;;;;;22.42;77.86;95084.31;4963414;28;20039;-87
2022/07/09 07:43:04;;;;;;;1.30;0.50;;;;;;;22.42;85.45;95086.97;4947458;28;20073;-88
2022/07/09 07:45:30;;;;;;;2.03;0.75;;;;;;;22.37;79.92;95089.81;4963381;28;20035;-87
2022/07/09 07:47:56;;;;;;;1.88;0.70;;;;;;;22.45;77.87;95080.97;4980716;28;20037;-88
2022/07/09 07:50:22;;;;;;;1.38;0.47;;;;;;;22.54;86.42;95083.59;4963289;28;20069;-87
2022/07/09 07:52:48;;;;;;;2.92;0.50;;;;;;;22.42;83.89;95081.63;4947632;28;20066;-88
2022/07/09 07:55:14;;;;;;;1.10;0.50;;;;;;;22.63;83.40;95083.53;4963201;28;20113;-87
2022/07/09 07:57:39;;;;;;;8.60;0.88;;;;;;;22.18;81.32;95082.28;4980566;28;20356;-89
2022/07/09 08:00:05;;;;;;;4.53;0.43;;;;;;;22.49;79.88;95080.34;4963512;28;20095;-88
2022/07/09 08:02:31;;;;;;;3.20;0.40;;;;;;;22.70;84.29;95083.00;4963363;28;20041;-89
2022/07/09 08:04:57;;;;;;;2.25;0.60;;;;;;;22.34;78.27;95076.38;4980682;28;20038;-88
2022/07/09 08:07:22;;;;;;;2.28;0.60;;;;;;;22.31;79.28;95080.47;4963497;28;20106;-89
2022/07/09 08:09:48;;;;;;;1.10;0.70;;;;;;;22.17;76.58;95076.16;4963249;28;20093;-89
2022/07/09 08:12:13;;;;;;;1.98;0.73;;;;;;;22.41;73.55;95079.28;4963451;28;20034;-88
2022/07/09 08:14:39;;;;;;;4.65;0.98;;;;;;;22.43;73.87;95080.53;4963189;28;20176;-87
2022/07/09 08:17:05;;;;;;;0.75;0.60;;;;;;;22.41;73.87;95076.59;4963665;28;20038;-89
2022/07/09 08:19:30;;;;;;;2.08;0.52;;;;;;;22.35;71.46;95067.25;4980491;28;20113;-87
2022/07/09 08:21:56;;;;;;;2.10;0.50;;;;;;;22.71;72.83;95079.22;4963064;28;20031;-88
2022/07/09 08:24:22;;;;;;;1.27;0.50;;;;;;;22.86;70.99;95075.19;4963150;28;20031;-89
2022/07/09 08:26:47;;;;;;;3.60;0.70;;;;;;;23.09;70.42;95080.94;4963442;28;20039;-89
2022/07/09 08:29:13;;;;;;;2.08;0.57;;;;;;;22.99;68.27;95076.00;4963187;28;20448;-88
2022/07/09 08:31:38;;;;;;;1.10;0.50;;;;;;;23.19;63.22;95085.06;4963235;28;20027;-87
2022/07/09 08:34:03;;;;;;;21.25;1.90;;;;;;;23.37;65.80;95085.69;4980428;28;20041;-87
2022/07/09 08:36:29;;;;;;;0.93;0.50;;;;;;;23.44;62.57;95085.91;4980324;28;20043;-87
2022/07/09 08:38:54;;;;;;;3.53;0.80;;;;;;;23.42;65.84;95082.03;4963330;28;20038;-89
2022/07/09 08:41:22;;;;;;;4.60;0.73;;;;;;;23.55;64.63;95083.59;4962880;28;20447;-88
2022/07/09 08:43:51;;;;;;;3.85;0.85;;;;;;;23.40;62.05;95081.59;4962676;28;20035;-88
2022/07/09 08:46:18;;;;;;;0.40;0.40;;;;;;;23.81;61.50;95084.38;4946934;28;20030;-89
2022/07/09 08:48:44;;;;;;;3.15;0.52;;;;;;;23.27;60.42;95076.22;4961990;28;20031;-89
2022/07/09 08:51:10;;;;;;;2.92;0.70;;;;;;;23.08;62.33;95086.59;4962808;28;20072;-89
2022/07/09 08:53:40;;;;;;;1.38;0.45;;;;;;;23.42;62.69;95085.47;4946738;28;20035;-89
2022/07/09 08:56:06;;;;;;;1.38;0.57;;;;;;;23.32;60.77;95080.56;4962372;28;20026;-88
2022/07/09 08:58:32;;;;;;;2.83;0.60;;;;;;;23.75;60.43;95077.72;4962441;28;20041;-89
2022/07/09 09:00:58;;;;;;;1.85;0.50;;;;;;;23.82;57.81;95084.06;4979735;28;20340;-88
2022/07/09 09:03:24;;;;;;;1.92;0.63;;;;;;;23.93;57.93;95075.56;4962695;28;20337;-88
2022/07/09 09:06:09;;;;;;;7.63;0.73;;;;;;;23.65;59.42;95081.59;4979573;28;20053;-89
2022/07/09 09:08:40;;;;;;;2.88;0.50;;;;;;;23.74;59.03;95071.56;4979582;28;20121;-87
2022/07/09 09:11:14;;;;;;;1.30;0.60;;;;;;;23.91;58.77;95072.44;4961776;28;20043;-87
2022/07/09 09:13:43;;;;;;;2.63;0.63;;;;;;;23.80;57.13;95067.53;4961874;28;20419;-87
2022/07/09 09:16:10;;;;;;;1.60;0.60;;;;;;;23.76;60.31;95069.34;4962108;28;20062;-88
2022/07/09 09:18:39;;;;;;;2.92;0.63;;;;;;;23.91;60.44;95075.13;4962466;28;20043;-88
2022/07/09 09:21:06;;;;;;;7.40;1.02;;;;;;;23.94;59.38;95063.75;4962325;28;20451;-90
2022/07/09 09:23:41;;;;;;;1.48;0.65;;;;;;;23.80;58.28;95070.22;4961719;28;20129;-88
2022/07/09 09:26:11;;;;;;;9.77;1.25;;;;;;;23.92;57.82;95071.34;4961942;28;20432;-90
2022/07/09 09:29:01;;;;;;;4.38;0.93;;;;;;;24.23;55.82;95059.28;4979140;28;20034;-87
2022/07/09 09:31:32;;;;;;;1.52;0.80;;;;;;;24.13;55.05;95068.56;4950944;28;20053;-88
2022/07/09 09:34:06;;;;;;;1.58;0.50;;;;;;;24.06;55.14;95077.16;4961571;28;20027;-90
2022/07/09 09:36:36;;;;;;;1.75;0.50;;;;;;;24.40;57.63;95055.56;4978696;28;20436;-88
2022/07/09 09:39:11;;;;;;;2.30;0.63;;;;;;;24.72;58.31;95063.69;4962025;28;20447;-88
2022/07/09 09:41:36;;;;;;;1.98;0.60;;;;;;;24.47;57.25;95065.69;4961591;28;20094;-90
2022/07/09 09:44:09;;;;;;;2.95;0.70;;;;;;;24.36;54.89;95060.03;4961306;28;20042;-87
2022/07/09 09:46:36;;;;;;;1.95;0.60;;;;;;;24.11;55.11;95055.53;4962004;28;20039;-90
2022/07/09 09:49:05;;;;;;;1.98;0.70;;;;;;;24.63;56.94;95063.84;4961661;28;20401;-88
2022/07/09 09:51:31;;;;;;;2.35;0.68;;;;;;;24.89;56.11;95056.50;4978933;28;20122;-90
2022/07/09 09:53:57;;;;;;;2.53;0.60;;;;;;;24.73;54.87;95053.78;4961368;28;20065;-88
2022/07/09 09:56:24;;;;;;;1.63;0.52;;;;;;;25.13;55.80;95052.94;4961497;28;20049;-87
2022/07/09 09:58:50;;;;;;;0.82;0.50;;;;;;;25.04;53.71;95052.31;4961468;28;20069;-89
2022/07/09 10:01:20;;;;;;;1.08;0.52;;;;;;;24.92;53.34;95056.59;4961380;28;20026;-90
2022/07/09 10:03:45;;;;;;;1.30;0.70;;;;;;;24.25;54.37;95049.78;4961130;28;20034;-89
2022/07/09 10:06:11;;;;;;;4.60;0.70;;;;;;;24.62;54.26;95048.13;4961249;28;20099;-89
2022/07/09 10:08:36;;;;;;;3.28;0.70;;;;;;;24.66;54.00;95049.75;4961002;28;20037;-88
2022/07/09 10:11:02;;;;;;;3.58;0.70;;;;;;;24.45;53.32;95051.88;4946960;28;20038;-88
2022/07/09 10:13:27;;;;;;;1.88;0.70;;;;;;;24.79;53.15;95047.84;4947928;28;20038;-88
2022/07/09 10:15:54;;;;;;;4.13;0.80;;;;;;;25.17;52.43;95050.31;4951953;28;20039;-89
2022/07/09 10:18:22;;;;;;;1.85;0.90;;;;;;;25.13;53.40;95052.94;4941805;29;20031;-89
2022/07/09 10:20:49;;;;;;;2.33;0.70;;;;;;;25.17;52.82;95047.63;4959289;29;20035;-91
2022/07/09 10:23:22;;;;;;;2.80;0.77;;;;;;;24.44;52.92;95048.41;4958602;29;20027;-89
2022/07/09 10:25:52;;;;;;;2.33;0.73;;;;;;;24.43;52.61;95042.28;4942160;29;20420;-89
2022/07/09 10:28:18;;;;;;;6.68;0.90;;;;;;;24.40;53.12;95042.97;4942581;29;20070;-88
2022/07/09 10:30:45;;;;;;;2.85;0.80;;;;;;;25.01;53.95;95047.63;4958863;29;20035;-88
2022/07/09 10:33:12;;;;;;;2.85;0.60;;;;;;;25.12;57.97;95038.75;4941694;29;20090;-89
2022/07/09 10:35:43;;;;;;;2.65;0.70;;;;;;;25.40;54.15;95048.63;4941534;29;20093;-89
2022/07/09 10:38:08;;;;;;;1.70;0.73;;;;;;;24.56;52.59;95037.63;4941456;29;20117;-88
2022/07/09 10:40:47;;;;;;;3.17;0.80;;;;;;;25.43;53.85;95041.78;4941397;29;20062;-88
2022/07/09 10:43:13;;;;;;;3.40;0.77;;;;;;;25.73;51.08;95040.56;4941600;29;20425;-87
2022/07/09 10:45:44;;;;;;;1.58;0.70;;;;;;;25.31;51.82;95044.56;4958727;29;20031;-90
2022/07/09 10:48:11;;;;;;;1.90;0.80;;;;;;;24.78;53.68;95038.25;4941521;29;20030;-88
2022/07/09 10:50:39;;;;;;;2.10;0.80;;;;;;;24.66;53.97;95043.63;4941490;29;20385;-89
2022/07/09 10:53:05;;;;;;;1.70;0.90;;;;;;;25.30;53.00;95037.63;4941744;29;20384;-87
2022/07/09 10:55:31;;;;;;;5.15;0.88;;;;;;;25.50;53.30;95027.81;4958827;28;20035;-88
2022/07/09 10:57:56;;;;;;;3.92;0.80;;;;;;;25.56;53.15;95026.41;4960721;28;20031;-88
2022/07/09 11:00:26;;;;;;;3.72;0.80;;;;;;;25.75;54.44;95022.22;4944842;28;20060;-89
2022/07/09 11:02:55;;;;;;;3.47;0.80;;;;;;;25.63;52.33;95015.06;4960388;28;20034;-89
2022/07/09 11:05:21;;;;;;;1.88;0.70;;;;;;;25.96;53.40;95020.00;4960324;28;20031;-90
2022/07/09 11:08:00;;;;;;;2.17;0.65;;;;;;;25.80;51.45;95020.03;4960652;28;20035;-88
2022/07/09 11:10:27;;;;;;;1.75;0.85;;;;;;;25.86;51.99;95012.50;4944707;28;20133;-88
2022/07/09 11:12:54;;;;;;;2.15;0.75;;;;;;;25.55;51.04;95006.06;4962688;28;20030;-87
2022/07/09 11:15:21;;;;;;;5.03;0.88;;;;;;;25.93;52.39;95009.97;4964545;28;20038;-87
2022/07/09 11:17:57;;;;;;;2.42;0.73;;;;;;;25.92;52.00;95011.13;4947861;28;20034;-89
2022/07/09 11:20:23;;;;;;;2.63;0.80;;;;;;;25.73;50.77;95008.38;4964943;28;20050;-89
2022/07/09 11:22:49;;;;;;;2.15;0.70;;;;;;;26.05;52.86;95013.69;4964393;28;20113;-88
2022/07/09 11:25:15;;;;;;;3.45;0.80;;;;;;;25.97;54.70;94996.66;4964467;28;20096;-88